METAR Data
IDs: Format: Raw Decoded Include TAF

Data at: 1605 UTC 18 Aug 2019

PAPN 181556Z AUTO 02005KT 10SM CLR 08/06 A3017 RMK AO2 SLP217 T00780061 PWINO $
PAPN 181456Z AUTO 03005KT 10SM CLR 09/07 A3018 RMK AO2 SLP221 T00890067 58012 PWINO $
PAPN 181356Z AUTO 05004KT 10SM CLR 09/07 A3019 RMK AO2 SLP225 T00940072 PWINO $
PAPN 181256Z AUTO 00000KT 10SM CLR 09/07 A3021 RMK AO2 SLP230 T00890067 PWINO $
PAPN 181156Z AUTO 35007KT 10SM CLR 11/08 A3021 RMK AO2 SLP232 T01110078 10156 20083 56012 PWINO $
PAPN 181056Z AUTO 35009KT 10SM OVC041 11/08 A3022 RMK AO2 SLP236 T01060078 PWINO $
PAPN 181028Z AUTO 36004KT 9SM FEW018 SCT026 OVC037 10/08 A3023 RMK AO2 PWINO $
PAPN 180956Z AUTO 04004KT 10SM BKN021 10/08 A3024 RMK AO2 SLP240 T01000078 PWINO $
PAPN 180856Z AUTO 01005KT 10SM CLR 12/08 A3025 RMK AO2 SLP245 T01170078 56007 PWINO $
PAPN 180656Z AUTO 00000KT 10SM CLR 13/12 A3026 RMK AO2 SLP249 T01330122 PWINO $
PAPN 180556Z AUTO 34007KT 10SM CLR 16/14 A3027 RMK AO2 SLP252 T01560139 10200 20156 56006 PWINO $
PAPN 180456Z AUTO 33012KT 10SM CLR 17/14 A3027 RMK AO2 SLP253 T01720139 PWINO $
PAPN 180356Z AUTO 33014KT 10SM CLR 18/12 A3028 RMK AO2 SLP255 T01830122 PWINO $
PAPN 180256Z AUTO 32012KT 10SM CLR 19/13 A3029 RMK AO2 SLP258 T01890133 56012 PWINO $
PAPN 180156Z AUTO 32013KT 10SM CLR 19/13 A3030 RMK AO2 SLP261 T01940133 PWINO $
PAPN 180056Z AUTO 34016KT 10SM CLR 20/11 A3031 RMK AO2 SLP266 T02000106 PWINO $
PAPN 180036Z AUTO 34013KT 10SM SCT028 20/12 A3032 RMK AO2 PWINO $
PAPN 180003Z AUTO 34013G19KT 10SM BKN025 19/13 A3032 RMK AO2 PWINO $
PAPN 172356Z AUTO 34014KT 10SM SCT023 19/13 A3032 RMK AO2 SLP269 T01940133 10200 20161 58008 PWINO $
PAPN 172324Z AUTO 34015KT 10SM SCT025 19/13 A3032 RMK AO2 PWINO $
PAPN 172313Z AUTO 35016KT 9SM BKN025 19/13 A3032 RMK AO2 PWINO $
PAPN 172256Z AUTO 35017G21KT 10SM SCT025 19/13 A3033 RMK AO2 SLP273 T01890128 PWINO $
PAPN 172225Z AUTO 35015KT 10SM FEW025 19/13 A3034 RMK AO2 PWINO $
PAPN 172156Z AUTO 35016KT 10SM BKN025 BKN032 19/13 A3034 RMK AO2 SLP275 T01890133 PWINO $
PAPN 172103Z AUTO 35012KT 10SM BKN025 OVC041 19/13 A3035 RMK AO2 PWINO $
PAPN 172056Z AUTO 01010KT 10SM SCT025 OVC041 19/13 A3035 RMK AO2 SLP278 T01890128 58011 PWINO $
PAPN 171956Z AUTO 36009KT 10SM OVC039 18/12 A3036 RMK AO2 SLP283 T01780122 PWINO $
PAPN 171856Z AUTO 03010KT 10SM FEW020 OVC044 17/12 A3037 RMK AO2 SLP286 T01670122 PWINO $
PAPN 171756Z AUTO 02008KT 10SM BKN048 16/13 A3038 RMK AO2 SLP289 T01610128 10161 20111 50003 PWINO $
PAPN 171656Z AUTO 34004KT 10SM FEW055 14/12 A3038 RMK AO2 SLP290 T01390122 PWINO $
PAPN 171556Z AUTO 01005KT 10SM CLR 12/11 A3037 RMK AO2 SLP287 T01170106 PWINO $
PAPN 171456Z AUTO 29005KT 7SM CLR 15/14 A3037 RMK AO2 SLP286 T01500144 58003 PWINO $
PAPN 171356Z AUTO 28008KT 8SM SCT007 14/14 A3038 RMK AO2 SLP288 T01440139 PWINO $
PAPN 171256Z AUTO 28010KT 9SM OVC009 14/13 A3038 RMK AO2 SLP289 T01440133 PWINO $
PAPN 171156Z AUTO 27011KT 9SM OVC009 15/13 A3039 RMK AO2 CIG 005V012 SLP291 T01500133 10150 20128 58009 PWINO $
PAPN 171056Z AUTO 23011KT 8SM SCT005 OVC009 14/13 A3041 RMK AO2 SLP298 T01390128 PWINO $
PAPN 171042Z AUTO 23010KT 8SM OVC009 13/13 A3041 RMK AO2 CIG 005V011 PWINO $
PAPN 171017Z AUTO 21009KT 8SM SCT006 OVC011 13/13 A3041 RMK AO2 PWINO $
PAPN 170956Z AUTO 23009KT 8SM BKN011 14/13 A3041 RMK AO2 SLP300 T01390128 PWINO $
PAPN 170952Z AUTO 23009KT 8SM BKN011 14/13 A3041 RMK AO2 PWINO $
PAPN 170945Z AUTO 25009KT 8SM SCT011 13/13 A3041 RMK AO2 PWINO $
PAPN 170932Z AUTO 24010KT 8SM BKN011 13/13 A3042 RMK AO2 PWINO $
PAPN 170856Z AUTO 23008KT 9SM SCT009 14/13 A3042 RMK AO2 SLP304 T01390128 56005 PWINO $
PAPN 170756Z AUTO 27013KT 10SM FEW011 15/13 A3043 RMK AO2 SLP304 T01500128 401720139 PWINO $
PAPN 170656Z AUTO 26011KT 10SM CLR 14/12 A3043 RMK AO2 SLP307 T01390122 PWINO $
PAPN 170556Z AUTO 28012KT 10SM CLR 15/12 A3044 RMK AO2 SLP309 T01500122 10172 20150 56007 PWINO $
PAPN 170456Z AUTO 29013KT 10SM CLR 16/12 A3044 RMK AO2 SLP311 T01560122 PWINO $